KBNW/BNW METAR and TAF weather

Enter ICAO airport designator
Station Type Date Time Source
KBNW METAR 2022/08/16 18:35 UTC NOAA

KBNW 161835Z AUTO 08007G12KT 10SM SCT030 SCT038 BKN049 24/18 A3015 RMK AO2


Station Type Date Time Source
KBNW Decoded METAR 2022/08/16 18:35 UTC NOAA

Boone Municipal, IA, United States (KBNW) 42-03N 093-51W
Aug 16, 2022 - 02:35 PM EDT / 2022.08.16 1835 UTC
Wind: from the E (080 degrees) at 8 MPH (7 KT) gusting to 14 MPH (12 KT):0
Visibility: 10 mile(s):0
Sky conditions: mostly cloudy
Temperature: 75 F (24 C)
Dew Point: 64 F (18 C)
Relative Humidity: 69%
Pressure (altimeter): 30.15 in. Hg (1020 hPa)
ob: KBNW 161835Z AUTO 08007G12KT 10SM SCT030 SCT038 BKN049 24/18 A3015 RMK AO2
cycle: 18

Station Type Date Time Source
KBNW TAF UTC NOAA

Error!

Example: see airport list